Accueil
METAR-TAF:

METAR-TAF

Aéroports :

Cambridge, Angleterre

Aéroport international de Cambridge

latitude: 52-12N, longitude: 000-11E, altitude: 15 m

Observation

Le bulletin a été fait il y a 41 minutes, à 08:20 UTC
Vent 8 kt de ouest
Température 7°C
Humidité 61%
Pression 1019 hPa
Visibilité 10 km ou plus
Quelques nuages à une hauteur de 4800 ft

METAR: EGSC 270820Z 28008KT 9999 FEW048 07/00 Q1019

Heure: 10:01 (09:01 UTC)

Prévision

Le bulletin a été fait il y a 1 heure et 3 minutes, à 07:58 UTC
Prévision valable du 27 à 09 UTC au 27 à 18 UTC
Vent 9 kt de ouest
Visibilité 10 km ou plus
Quelques nuages à une hauteur de 4500 ft
Probabilité 40% :
Temporairement
du 27 à 10 UTC au 27 à 18 UTC
Visibilité: 7000 m
averses de pluie
Probabilité 30% :
Temporairement
du 27 à 12 UTC au 27 à 18 UTC
Nuages fragmentés à une hauteur de 1400 ft

TAF: EGSC 270758Z 2709/2718 28009KT 9999 FEW045 PROB40 TEMPO 2710/2718 7000 SHRA PROB30 TEMPO 2712/2718 BKN014

Observations et prévisions météorologiques de plus de 4000 aéroports (messages METAR et TAF).

Les stations disponibles sont représentées par des disques jaunes et rouges sur la carte.

Passer la souris dessus pour voir le nom de la station.

Cliquer dessus pour voir les observations et prévisions météorologiques.

Pour changer de carte: cliquez sur les boutons verts avec une croix noire pour zoomer, sur le bouton vert avec un tiret pour effectuer un zoom arrière, ou sur les flèches vertes pour les cartes adjacentes.


METAR-TAF: